Home PIREPS Pireps

Flight WIN1005

  • Submitted By: Carl Hermans
  • Departure Airport: airport Innsbruck (LOWI)
  • Arrival Airport: Bruxelles National (EBBR)
  • Aircraft: YOUR CHOICE (YC)
  • Flight Time: 01.25
  • Date Submitted: 26/06/2016
  • Status: Accepted
Flight Details
Gross Revenue:
(25 load / € 0.00 per unit
€ 0.00
Fuel Cost:
(2421 fuel used @ 5.1 / unit)
€ 12,347.10

Additional Log Information:

View Log

Aircraft Used in flight is x737-800_v501 jetairfly
15:42Flaps 3 Selected at 1890ft and 0kts
15:42 Engine 1 Started
15:42 Engine 2 Started
15:42 Engine 3 Started
15:42 Engine 4 Started
15:42 Strobe Lights ON at 1890 AGL
15:42 Taxi Lights ON at 1890 AGL
15:42 Beacon Lights ON at 1890 AGL
15:42 Brakes are On
15:42 Brakes are Released
15:46 Brakes are On
15:46 Brakes are Released
15:48 Brakes are On
15:48 Brakes are Released
15:48 Taxi Lights OFF at 1920 AGL
15:49 Landing Gear Up @ 165 Knots and 1900 Feet
15:49 You Took off @ 165 Knots and Flaps at Position 3
Departure Weather
LOWI 261320Z VRB03KT 9999 FEW025 SCT040 BKN050 FEW060CB 18/14 Q1018 TEMPO 27012KT SHRArn
15:49 You are Airborne and your Navigation Lights are off
15:51 You exceeded maximum bank angle
15:52 Stalling
15:52Flaps 2 Selected at 6610ft and 115kts
15:52Flaps 1 Selected at 6640ft and 114kts
15:52Flaps Retracted at 6660ft and 112kts
15:54 Recovered from Stall
15:54 Stalling
15:54 Recovered from Stall
15:55 Above FL100 you need to switch of the landing lights
15:55 Stalling
15:55 Recovered from Stall
16:01 Overspeed
16:01 Recovered from Overspeed
16:54Flaps 2 Selected at 3980ft and 170kts
16:54Flaps 3 Selected at 3930ft and 173kts
16:54Flaps 4 Selected at 3900ft and 173kts
16:54Flaps 7 Selected at 3840ft and 173kts
16:54Flaps 8 Selected at 3760ft and 170kts
16:55 Landing Gear Down @ 161 Knots and 3160 Feet
16:59 You Landed @ 133 Knots and with -400 Vertical Speed
Arrival Weather
EBBR 261420Z 23006KT 190V250 9999 FEW025CB 16/12 Q1018 TEMPO 4000 TSRArn
16:59 Brakes are On
17:00Flaps 6 Selected at 150ft and 3kts
17:00Flaps 2 Selected at 150ft and 3kts
17:00Flaps Retracted at 150ft and 3kts
17:00 Brakes are Released
17:01 Brakes are On
17:01 Brakes are Released
17:01 Brakes are On
17:01 Taxi Lights ON at 150 AGL
17:01 Taxi Lights OFF at 150 AGL
17:01 Brussels Bel-Track1.0.0.11

Route Map

Corporate About Us Our Team Vacancies Information Fleet Route Network Rules and Regulations Operations Flight Schedules Event Center Tours Partners IVAO Vatsim Acars dev FSCB

fb Users Online Belgium Michael Bitu,
1 Pilot(s) and 92 Guest(s) Online
CMS by phpVMS - Design by Crazycreatives.com - Copyright © 2018 - Brussels Airlines Virtual